Time;durP1;ratioP1;P1;durP2;ratioP2;P2;SDS_P1;SDS_P2;PMS_P1;PMS_P2;Temp;Humidity;BMP_temperature;BMP_pressure;BME280_temperature;BME280_humidity;BME280_pressure;Samples;Min_cycle;Max_cycle;Signal;HPM_P1;HPM_P2
2022/09/23 00:00:36;;;;;;;6.43;4.45;;;12.50;99.90;;;;;;5079219;28;20405;-64
2022/09/23 00:03:03;;;;;;;5.18;4.30;;;12.50;99.90;;;;;;5078573;28;20079;-64
2022/09/23 00:05:30;;;;;;;5.78;4.63;;;12.50;99.90;;;;;;5079128;28;20060;-64
2022/09/23 00:07:56;;;;;;;5.95;4.65;;;12.40;99.90;;;;;;5078378;28;20086;-64
2022/09/23 00:10:24;;;;;;;6.35;4.50;;;12.30;99.90;;;;;;5079036;28;20090;-64
2022/09/23 00:12:51;;;;;;;5.97;4.13;;;12.30;99.90;;;;;;5078861;28;20056;-64
2022/09/23 00:15:17;;;;;;;6.18;4.68;;;12.30;99.90;;;;;;5078204;28;20032;-64
2022/09/23 00:17:43;;;;;;;5.15;4.65;;;12.20;99.90;;;;;;5078512;28;20020;-65
2022/09/23 00:20:10;;;;;;;5.65;4.60;;;12.20;99.90;;;;;;5078372;28;20371;-64
2022/09/23 00:22:36;;;;;;;6.57;4.28;;;12.20;99.90;;;;;;5078145;28;20032;-64
2022/09/23 00:25:04;;;;;;;5.78;4.68;;;12.20;99.90;;;;;;5078819;28;20273;-65
2022/09/23 00:27:29;;;;;;;6.07;4.40;;;12.30;99.90;;;;;;5079005;28;20472;-64
2022/09/23 00:29:55;;;;;;;6.78;4.20;;;12.30;99.90;;;;;;5077914;28;20084;-63
2022/09/23 00:32:21;;;;;;;4.50;4.10;;;12.30;99.90;;;;;;5078640;28;20020;-64
2022/09/23 00:34:48;;;;;;;4.68;4.07;;;12.30;99.90;;;;;;5061104;28;20066;-65
2022/09/23 00:37:15;;;;;;;4.50;3.92;;;12.20;99.90;;;;;;5077906;28;20201;-64
2022/09/23 00:39:41;;;;;;;5.95;4.03;;;12.30;99.90;;;;;;5078488;28;20033;-64
2022/09/23 00:42:17;;;;;;;4.65;3.97;;;12.10;99.90;;;;;;5061219;28;20040;-64
2022/09/23 00:44:51;;;;;;;6.05;4.18;;;12.00;99.90;;;;;;5078480;28;20036;-64
2022/09/23 00:47:27;;;;;;;6.40;4.65;;;12.10;99.90;;;;;;5078388;28;20033;-64
2022/09/23 00:50:08;;;;;;;6.82;4.25;;;12.10;99.90;;;;;;5094344;28;20261;-64
2022/09/23 00:52:34;;;;;;;5.38;4.00;;;12.00;99.90;;;;;;5078284;28;20025;-65
2022/09/23 00:55:05;;;;;;;5.50;4.22;;;12.00;99.90;;;;;;5060851;28;20108;-64
2022/09/23 00:57:32;;;;;;;6.60;4.07;;;12.00;99.90;;;;;;5077368;28;20028;-64
2022/09/23 00:59:58;;;;;;;7.90;4.60;;;11.90;99.90;;;;;;5078125;28;20127;-64
2022/09/23 01:02:25;;;;;;;6.00;4.18;;;11.90;99.90;;;;;;5077433;28;20116;-64
2022/09/23 01:04:51;;;;;;;5.57;4.20;;;11.90;99.90;;;;;;5077325;28;20087;-64
2022/09/23 01:07:18;;;;;;;6.15;4.68;;;12.00;99.90;;;;;;5077350;28;20036;-64
2022/09/23 01:09:45;;;;;;;6.13;4.47;;;12.10;99.90;;;;;;5077148;28;20319;-65
2022/09/23 01:12:26;;;;;;;6.13;4.90;;;12.10;99.90;;;;;;5093808;28;20059;-64
2022/09/23 01:15:10;;;;;;;5.05;4.28;;;12.00;99.90;;;;;;5060615;28;20067;-64
2022/09/23 01:17:43;;;;;;;5.72;4.13;;;11.80;99.90;;;;;;5077275;28;20052;-66
2022/09/23 01:20:30;;;;;;;5.10;4.50;;;11.80;99.90;;;;;;5077704;28;20033;-64
2022/09/23 01:23:17;;;;;;;5.60;4.47;;;11.70;99.90;;;;;;5076847;28;20396;-65
2022/09/23 01:26:04;;;;;;;5.30;4.40;;;11.70;99.90;;;;;;5076748;28;20040;-64
2022/09/23 01:28:49;;;;;;;6.00;4.60;;;11.60;99.90;;;;;;5092860;28;20070;-64
2022/09/23 01:31:37;;;;;;;6.90;4.70;;;11.60;99.90;;;;;;5077550;28;20036;-64
2022/09/23 01:34:25;;;;;;;7.35;4.40;;;11.60;99.90;;;;;;5076253;28;20051;-65
2022/09/23 01:37:06;;;;;;;6.18;4.60;;;11.70;99.90;;;;;;5076690;28;20422;-64
2022/09/23 01:39:52;;;;;;;5.65;4.80;;;11.80;99.90;;;;;;5077407;28;20300;-64
2022/09/23 01:42:25;;;;;;;6.35;4.38;;;11.70;99.90;;;;;;5077630;28;20296;-64
2022/09/23 01:44:57;;;;;;;6.25;4.70;;;11.60;99.90;;;;;;5076700;28;20025;-64
2022/09/23 01:48:12;;;;;;;8.60;4.97;;;11.70;99.90;;;;;;5076373;28;20396;-65
2022/09/23 01:50:57;;;;;;;6.47;4.80;;;11.70;99.90;;;;;;5074739;28;20045;-65
2022/09/23 01:53:31;;;;;;;5.80;5.20;;;11.50;99.90;;;;;;5094474;28;20438;-64
2022/09/23 01:56:03;;;;;;;7.63;4.38;;;11.40;99.90;;;;;;5077646;28;20016;-64
2022/09/23 01:58:47;;;;;;;6.93;5.10;;;11.40;99.90;;;;;;5077250;28;20396;-64
2022/09/23 02:01:24;;;;;;;7.90;4.70;;;11.50;99.90;;;;;;5077154;28;20103;-64
2022/09/23 02:04:03;;;;;;;9.15;4.88;;;11.60;99.90;;;;;;5077125;28;20123;-65
2022/09/23 02:07:14;;;;;;;6.00;4.68;;;11.60;99.90;;;;;;5076237;28;20043;-65
2022/09/23 02:09:48;;;;;;;6.53;4.43;;;11.40;99.90;;;;;;5068629;28;20293;-64
2022/09/23 02:12:17;;;;;;;6.60;5.40;;;11.30;99.90;;;;;;5076110;28;20059;-64
2022/09/23 02:15:04;;;;;;;7.13;5.25;;;11.30;99.90;;;;;;5093098;28;20292;-64
2022/09/23 02:17:48;;;;;;;7.97;5.85;;;11.50;99.90;;;;;;5077042;28;20028;-65
2022/09/23 02:20:19;;;;;;;7.13;5.30;;;11.40;99.90;;;;;;5077060;28;20036;-65
2022/09/23 02:23:00;;;;;;;9.27;5.70;;;11.40;99.90;;;;;;5076183;28;20115;-65
2022/09/23 02:25:36;;;;;;;6.18;5.10;;;11.40;99.90;;;;;;5076925;28;20048;-64
2022/09/23 02:28:12;;;;;;;6.47;5.10;;;11.40;99.90;;;;;;5076818;28;20067;-65
2022/09/23 02:30:48;;;;;;;7.13;5.07;;;11.30;99.90;;;;;;5092875;28;20048;-64
2022/09/23 02:33:35;;;;;;;5.38;4.70;;;11.20;99.90;;;;;;5076851;28;20036;-64
2022/09/23 02:36:19;;;;;;;5.97;4.78;;;11.20;99.90;;;;;;5076066;28;20024;-65
2022/09/23 02:38:56;;;;;;;6.72;4.72;;;11.30;99.90;;;;;;5076783;28;20038;-64
2022/09/23 02:41:28;;;;;;;5.25;4.65;;;11.20;99.90;;;;;;5079806;28;20058;-65
2022/09/23 02:44:07;;;;;;;6.13;5.03;;;11.20;99.90;;;;;;5080018;28;20037;-65
2022/09/23 02:46:34;;;;;;;5.07;4.57;;;11.10;99.90;;;;;;5080680;28;20024;-64
2022/09/23 02:49:16;;;;;;;5.10;4.57;;;11.10;99.90;;;;;;5079895;28;20070;-64
2022/09/23 02:51:43;;;;;;;4.72;4.30;;;11.10;99.90;;;;;;5080986;28;20095;-64
2022/09/23 02:54:19;;;;;;;5.88;5.07;;;11.10;99.90;;;;;;5080499;28;20036;-64
2022/09/23 02:56:48;;;;;;;6.18;4.70;;;11.10;99.90;;;;;;5080576;28;20024;-64
2022/09/23 02:59:18;;;;;;;6.57;5.03;;;11.10;99.90;;;;;;5080453;28;20024;-65
2022/09/23 03:02:21;;;;;;;7.03;4.97;;;11.10;99.90;;;;;;5096605;28;20370;-65
2022/09/23 03:05:17;;;;;;;5.43;4.90;;;11.20;99.90;;;;;;5079931;28;20020;-65
2022/09/23 03:07:49;;;;;;;6.57;5.20;;;11.20;99.90;;;;;;5080147;28;20036;-65
2022/09/23 03:10:48;;;;;;;6.10;4.88;;;11.10;99.90;;;;;;5079501;28;20047;-65
2022/09/23 03:13:54;;;;;;;7.53;4.90;;;11.30;99.90;;;;;;5080224;28;20028;-65
2022/09/23 03:16:28;;;;;;;5.60;4.53;;;11.30;99.90;;;;;;5079409;28;20023;-65
2022/09/23 03:19:26;;;;;;;5.47;4.78;;;11.20;99.90;;;;;;5080137;28;20032;-65
2022/09/23 03:22:21;;;;;;;7.47;4.53;;;11.20;99.90;;;;;;5080044;28;20032;-65
2022/09/23 03:24:49;;;;;;;7.72;4.60;;;11.00;99.90;;;;;;5078221;28;20059;-65
2022/09/23 03:27:20;;;;;;;7.07;4.93;;;11.00;99.90;;;;;;5078978;28;20392;-65
2022/09/23 03:29:49;;;;;;;7.15;4.88;;;11.10;99.90;;;;;;5079190;28;20344;-64
2022/09/23 03:32:19;;;;;;;7.78;5.18;;;11.40;99.90;;;;;;5079039;28;20021;-65
2022/09/23 03:34:49;;;;;;;5.95;4.78;;;11.50;99.90;;;;;;5079813;28;20028;-64
2022/09/23 03:37:21;;;;;;;6.32;5.03;;;11.50;99.90;;;;;;5079683;28;20037;-64
2022/09/23 03:39:51;;;;;;;6.50;5.30;;;11.40;99.90;;;;;;5079021;28;20129;-64
2022/09/23 03:42:28;;;;;;;8.00;5.25;;;11.40;99.90;;;;;;5079607;28;20029;-64
2022/09/23 03:44:56;;;;;;;6.97;5.25;;;11.40;99.90;;;;;;5079607;28;20028;-64
2022/09/23 03:47:24;;;;;;;8.38;5.60;;;11.50;99.90;;;;;;5079497;28;20028;-64
2022/09/23 03:49:50;;;;;;;5.80;4.93;;;11.60;99.90;;;;;;5095670;28;20028;-64
2022/09/23 03:52:18;;;;;;;6.28;5.30;;;11.60;99.90;;;;;;5094635;28;20020;-64
2022/09/23 03:54:45;;;;;;;6.82;4.95;;;11.50;99.90;;;;;;5079470;28;20021;-64
2022/09/23 03:57:11;;;;;;;6.38;5.35;;;11.40;99.90;;;;;;5079411;28;20035;-64
2022/09/23 03:59:37;;;;;;;8.45;4.97;;;11.40;99.90;;;;;;5061940;28;20038;-64
2022/09/23 04:02:04;;;;;;;9.48;4.95;;;11.40;99.90;;;;;;5061935;28;20459;-65
2022/09/23 04:04:33;;;;;;;9.52;5.15;;;11.60;99.90;;;;;;5061999;28;20039;-64
2022/09/23 04:06:59;;;;;;;8.00;4.47;;;11.50;99.90;;;;;;5045488;28;20355;-65
2022/09/23 04:09:25;;;;;;;9.35;5.47;;;11.50;99.90;;;;;;5078869;28;20036;-64
2022/09/23 04:11:52;;;;;;;7.82;5.15;;;11.60;99.90;;;;;;5078969;28;20056;-64
2022/09/23 04:14:19;;;;;;;5.95;4.80;;;11.60;99.90;;;;;;5079442;28;20027;-66
2022/09/23 04:16:47;;;;;;;5.82;5.10;;;11.60;99.90;;;;;;5095033;28;20051;-64
2022/09/23 04:19:13;;;;;;;11.55;5.78;;;11.50;99.90;;;;;;5079360;28;20043;-66
2022/09/23 04:21:40;;;;;;;7.97;5.45;;;11.70;99.90;;;;;;5078215;28;20339;-66
2022/09/23 04:24:07;;;;;;;7.72;5.15;;;11.70;99.90;;;;;;5061587;28;20028;-64
2022/09/23 04:26:33;;;;;;;6.30;5.28;;;11.90;99.90;;;;;;5094890;28;20410;-65
2022/09/23 04:28:59;;;;;;;5.65;5.07;;;11.90;99.90;;;;;;5078029;28;20090;-65
2022/09/23 04:31:25;;;;;;;9.93;5.53;;;11.80;99.90;;;;;;5079245;28;20127;-64
2022/09/23 04:33:54;;;;;;;7.60;5.40;;;11.70;99.90;;;;;;5078654;28;20288;-65
2022/09/23 04:36:20;;;;;;;7.22;5.40;;;11.60;99.90;;;;;;5079099;28;20028;-65
2022/09/23 04:38:48;;;;;;;8.82;5.32;;;11.70;99.90;;;;;;5077874;28;20035;-65
2022/09/23 04:41:14;;;;;;;5.88;5.00;;;11.80;99.90;;;;;;5077870;28;20028;-64
2022/09/23 04:43:41;;;;;;;7.97;5.63;;;11.70;99.90;;;;;;5078445;28;20036;-65
2022/09/23 04:46:10;;;;;;;5.63;5.00;;;11.70;99.90;;;;;;5078991;28;20318;-64
2022/09/23 04:48:37;;;;;;;7.88;5.68;;;11.60;99.90;;;;;;5078534;28;20439;-64
2022/09/23 04:51:05;;;;;;;7.50;5.40;;;11.70;99.90;;;;;;5060982;28;20024;-64
2022/09/23 04:53:31;;;;;;;6.75;5.50;;;11.60;99.90;;;;;;5078236;28;20028;-64
2022/09/23 04:56:12;;;;;;;6.88;5.65;;;11.60;99.90;;;;;;5077497;28;20420;-65
2022/09/23 04:58:39;;;;;;;7.80;5.88;;;11.60;99.90;;;;;;5077402;28;20032;-64
2022/09/23 05:01:17;;;;;;;10.65;5.60;;;11.70;99.90;;;;;;5078017;28;20295;-65
2022/09/23 05:03:43;;;;;;;7.85;5.88;;;11.90;99.90;;;;;;5077973;28;20028;-64
2022/09/23 05:06:14;;;;;;;7.55;6.10;;;11.90;99.90;;;;;;5078491;28;20420;-65
2022/09/23 05:08:45;;;;;;;7.40;6.30;;;11.90;99.90;;;;;;5077165;28;20347;-65
2022/09/23 05:11:11;;;;;;;15.13;6.50;;;11.80;99.90;;;;;;5077625;28;20044;-65
2022/09/23 05:13:36;;;;;;;12.60;6.38;;;11.80;99.90;;;;;;5060335;28;20416;-65
2022/09/23 05:16:06;;;;;;;7.75;5.80;;;11.80;99.90;;;;;;5078198;28;20382;-65
2022/09/23 05:18:39;;;;;;;9.98;5.95;;;11.80;99.90;;;;;;5077435;28;20025;-64
2022/09/23 05:21:06;;;;;;;9.38;6.32;;;11.80;99.90;;;;;;5078320;28;20028;-64
2022/09/23 05:23:32;;;;;;;8.80;6.43;;;11.80;99.90;;;;;;5076872;28;20028;-65
2022/09/23 05:26:01;;;;;;;8.32;6.40;;;11.90;99.90;;;;;;5077052;28;20043;-64
2022/09/23 05:28:31;;;;;;;7.32;5.65;;;12.00;99.90;;;;;;5077618;28;20031;-64
2022/09/23 05:31:11;;;;;;;9.40;5.97;;;12.00;99.90;;;;;;5060927;28;20033;-64
2022/09/23 05:33:37;;;;;;;7.85;5.65;;;12.00;99.90;;;;;;5060102;28;20028;-65
2022/09/23 05:36:03;;;;;;;11.02;6.50;;;11.90;99.90;;;;;;5076635;28;20025;-65
2022/09/23 05:38:30;;;;;;;7.45;6.18;;;12.00;99.90;;;;;;5059921;28;20043;-66
2022/09/23 05:41:15;;;;;;;9.18;6.72;;;12.00;99.90;;;;;;5076700;28;20028;-64
2022/09/23 05:43:41;;;;;;;7.68;5.95;;;12.10;99.90;;;;;;5077259;28;20056;-64
2022/09/23 05:46:11;;;;;;;8.10;5.75;;;12.00;99.90;;;;;;5076569;28;20317;-64
2022/09/23 05:48:38;;;;;;;8.73;6.10;;;12.00;99.90;;;;;;5077120;28;20055;-64
2022/09/23 05:51:10;;;;;;;8.55;6.00;;;11.90;99.90;;;;;;5077911;28;20070;-65
2022/09/23 05:53:36;;;;;;;9.65;6.90;;;11.90;99.90;;;;;;5093294;28;20033;-64
2022/09/23 05:56:03;;;;;;;9.07;6.80;;;11.90;99.90;;;;;;5076464;28;20323;-65
2022/09/23 05:58:29;;;;;;;10.18;7.00;;;11.90;99.90;;;;;;5077118;28;20039;-66
2022/09/23 06:00:55;;;;;;;11.80;6.68;;;12.00;99.90;;;;;;5077127;28;20032;-65
2022/09/23 06:03:22;;;;;;;8.02;6.03;;;12.10;99.90;;;;;;5076219;28;20047;-66
2022/09/23 06:05:53;;;;;;;10.57;5.93;;;12.00;99.90;;;;;;5076953;28;20035;-64
2022/09/23 06:08:19;;;;;;;9.27;6.20;;;12.00;99.90;;;;;;5077008;28;20055;-63
2022/09/23 06:10:47;;;;;;;8.57;6.03;;;11.90;99.90;;;;;;5076946;28;20024;-63
2022/09/23 06:13:14;;;;;;;11.50;6.38;;;11.90;99.90;;;;;;5076210;28;20194;-63
2022/09/23 06:15:43;;;;;;;12.25;6.45;;;12.00;99.90;;;;;;5076471;28;20028;-64
2022/09/23 06:18:09;;;;;;;11.77;6.65;;;12.00;99.90;;;;;;5076254;28;20036;-65
2022/09/23 06:20:35;;;;;;;8.02;6.13;;;12.00;99.90;;;;;;5076213;28;20044;-64
2022/09/23 06:23:07;;;;;;;9.63;6.47;;;12.00;99.90;;;;;;5076938;28;20032;-64
2022/09/23 06:25:33;;;;;;;12.02;6.20;;;12.00;99.90;;;;;;5076874;28;20036;-65
2022/09/23 06:28:00;;;;;;;9.52;6.60;;;12.10;99.90;;;;;;5076103;28;20111;-66
2022/09/23 06:30:27;;;;;;;14.85;7.07;;;12.30;99.90;;;;;;5076770;28;20292;-65
2022/09/23 06:32:54;;;;;;;11.50;6.88;;;12.40;99.90;;;;;;5076777;28;20028;-65
2022/09/23 06:35:25;;;;;;;7.47;5.93;;;12.50;99.90;;;;;;5076754;28;20047;-66
2022/09/23 06:37:52;;;;;;;9.98;6.45;;;12.60;99.90;;;;;;5076750;28;20032;-65
2022/09/23 06:40:18;;;;;;;10.32;6.20;;;12.80;99.90;;;;;;5075937;28;20024;-66
2022/09/23 06:42:44;;;;;;;9.38;6.40;;;12.80;99.90;;;;;;5076999;28;20028;-66
2022/09/23 06:45:13;;;;;;;9.55;6.40;;;12.90;99.90;;;;;;5075767;28;20113;-66
2022/09/23 06:47:40;;;;;;;9.23;6.20;;;13.10;99.90;;;;;;5075829;28;20131;-66
2022/09/23 06:50:07;;;;;;;7.88;5.85;;;13.20;99.90;;;;;;5076645;28;20052;-66
2022/09/23 06:52:33;;;;;;;10.15;5.90;;;13.30;99.90;;;;;;5076487;28;20032;-65
2022/09/23 06:55:00;;;;;;;10.88;6.03;;;13.20;99.90;;;;;;5059406;28;20148;-66
2022/09/23 06:57:29;;;;;;;11.95;5.60;;;13.30;99.90;;;;;;5077189;28;20042;-66
2022/09/23 06:59:57;;;;;;;12.60;6.32;;;13.40;99.90;;;;;;5042512;28;20400;-66
2022/09/23 07:02:23;;;;;;;11.40;6.13;;;13.20;99.90;;;;;;5075910;28;20036;-66
2022/09/23 07:04:50;;;;;;;10.70;5.50;;;12.80;99.90;;;;;;5075606;28;20052;-66
2022/09/23 07:07:17;;;;;;;11.57;5.97;;;13.10;99.90;;;;;;5075694;28;20055;-66
2022/09/23 07:09:44;;;;;;;10.63;5.75;;;13.10;99.90;;;;;;5075865;28;20047;-66
2022/09/23 07:12:11;;;;;;;8.85;5.38;;;13.10;99.90;;;;;;5076117;28;20447;-66
2022/09/23 07:14:36;;;;;;;9.85;5.22;;;13.00;99.90;;;;;;5075581;28;20024;-65
2022/09/23 07:17:02;;;;;;;10.35;6.05;;;12.90;99.90;;;;;;5058968;28;20040;-65
2022/09/23 07:19:28;;;;;;;10.43;5.03;;;12.70;99.90;;;;;;5058997;28;20056;-67
2022/09/23 07:21:54;;;;;;;13.52;5.65;;;12.80;99.90;;;;;;5076209;28;20111;-66
2022/09/23 07:24:21;;;;;;;9.15;5.70;;;12.80;99.90;;;;;;5075372;28;20140;-66
2022/09/23 07:26:47;;;;;;;10.23;5.70;;;12.90;99.90;;;;;;5076409;28;20308;-66
2022/09/23 07:29:14;;;;;;;9.50;5.60;;;13.10;99.90;;;;;;5080210;28;20054;-66
2022/09/23 07:31:40;;;;;;;12.15;5.65;;;13.20;99.90;;;;;;5079940;28;20107;-66
2022/09/23 07:34:10;;;;;;;9.82;5.95;;;13.50;99.90;;;;;;5079714;28;20061;-66
2022/09/23 07:36:38;;;;;;;12.73;6.00;;;13.50;99.90;;;;;;5078963;28;20297;-66
2022/09/23 07:39:04;;;;;;;9.32;5.88;;;13.30;99.90;;;;;;5079737;28;20384;-66
2022/09/23 07:41:31;;;;;;;10.23;5.63;;;13.40;99.90;;;;;;5029330;28;20032;-65
2022/09/23 07:43:59;;;;;;;14.25;5.78;;;13.50;99.90;;;;;;5079091;28;20119;-65
2022/09/23 07:46:34;;;;;;;9.25;5.32;;;13.80;99.90;;;;;;5078945;28;20320;-66
2022/09/23 07:49:01;;;;;;;8.52;5.90;;;13.80;99.90;;;;;;5095512;28;20140;-65
2022/09/23 07:51:31;;;;;;;10.77;5.68;;;13.90;99.90;;;;;;5079729;28;20035;-66
2022/09/23 07:53:57;;;;;;;12.70;5.25;;;13.90;99.90;;;;;;5079481;28;20028;-65
2022/09/23 07:56:26;;;;;;;8.07;5.10;;;13.90;99.90;;;;;;5079397;28;20025;-65
2022/09/23 07:59:02;;;;;;;11.88;5.82;;;14.30;99.90;;;;;;5079916;28;20032;-66
2022/09/23 08:01:30;;;;;;;9.93;5.60;;;14.70;99.90;;;;;;5079412;28;20039;-66
2022/09/23 08:04:02;;;;;;;10.65;5.50;;;14.80;99.90;;;;;;5078655;28;20371;-67
2022/09/23 08:06:28;;;;;;;15.68;5.90;;;14.80;99.90;;;;;;5078617;28;20099;-64
2022/09/23 08:08:57;;;;;;;9.90;5.20;;;14.90;99.90;;;;;;5061708;28;20028;-64
2022/09/23 08:11:24;;;;;;;9.13;5.28;;;15.10;99.90;;;;;;5078979;28;20041;-65
2022/09/23 08:13:50;;;;;;;8.80;5.22;;;15.00;99.90;;;;;;5061879;28;20033;-66
2022/09/23 08:16:16;;;;;;;9.65;5.30;;;14.70;99.90;;;;;;5061683;28;20031;-66
2022/09/23 08:18:45;;;;;;;14.75;5.88;;;14.40;99.90;;;;;;5079043;28;20024;-66
2022/09/23 08:21:11;;;;;;;8.82;4.95;;;14.50;99.90;;;;;;5079033;28;20029;-66
2022/09/23 08:23:37;;;;;;;11.38;5.90;;;14.50;99.90;;;;;;5078088;28;20158;-65
2022/09/23 08:26:05;;;;;;;11.88;5.63;;;14.70;99.90;;;;;;5079189;28;20383;-66
2022/09/23 08:28:32;;;;;;;9.60;5.00;;;14.90;99.90;;;;;;5079379;28;20032;-66
2022/09/23 08:30:59;;;;;;;9.25;5.63;;;14.80;99.90;;;;;;5094873;28;20418;-66
2022/09/23 08:33:25;;;;;;;9.77;5.55;;;14.90;99.90;;;;;;5078755;28;20115;-66
2022/09/23 08:35:57;;;;;;;11.65;5.18;;;15.20;99.90;;;;;;5078637;28;20029;-67
2022/09/23 08:38:23;;;;;;;10.85;5.40;;;14.90;99.90;;;;;;5077620;28;20021;-67
2022/09/23 08:40:49;;;;;;;11.23;5.38;;;14.70;99.90;;;;;;5077771;28;20105;-67
2022/09/23 08:43:27;;;;;;;10.57;5.35;;;14.60;99.90;;;;;;5061811;28;20040;-66
2022/09/23 08:45:56;;;;;;;10.65;5.30;;;14.60;99.90;;;;;;5077699;28;20430;-67
2022/09/23 08:48:35;;;;;;;11.95;5.60;;;14.60;99.90;;;;;;5078911;28;20036;-68
2022/09/23 08:51:05;;;;;;;14.40;5.72;;;14.50;99.90;;;;;;5078474;28;20300;-66
2022/09/23 08:53:36;;;;;;;10.00;5.30;;;14.50;99.90;;;;;;5079205;28;20028;-70
2022/09/23 08:56:22;;;;;;;13.88;5.72;;;14.70;99.90;;;;;;5060891;28;20028;-66
2022/09/23 08:59:15;;;;;;;13.45;5.70;;;14.90;99.90;;;;;;5078828;28;20040;-66
2022/09/23 09:01:48;;;;;;;8.95;5.38;;;15.20;99.90;;;;;;5078217;28;20060;-66
2022/09/23 09:04:37;;;;;;;10.10;5.07;;;15.50;99.90;;;;;;5078130;28;20086;-66
2022/09/23 09:07:06;;;;;;;11.25;5.00;;;15.90;99.90;;;;;;5052582;28;20076;-66
2022/09/23 09:09:35;;;;;;;10.82;4.63;;;16.20;99.90;;;;;;5077293;28;20064;-66
2022/09/23 09:12:14;;;;;;;11.05;5.38;;;16.60;99.90;;;;;;5077097;28;20075;-67
2022/09/23 09:15:01;;;;;;;11.70;5.10;;;16.10;99.90;;;;;;5077265;28;20028;-67
2022/09/23 09:17:37;;;;;;;12.95;5.43;;;15.60;99.90;;;;;;5077862;28;20037;-65
2022/09/23 09:20:17;;;;;;;10.93;5.55;;;15.30;99.90;;;;;;5077020;28;20032;-66
2022/09/23 09:22:52;;;;;;;9.32;5.25;;;15.30;99.90;;;;;;5077092;28;20102;-64
2022/09/23 09:25:32;;;;;;;10.65;5.07;;;15.60;99.90;;;;;;5077694;28;20078;-65
2022/09/23 09:27:59;;;;;;;10.80;5.05;;;15.80;99.90;;;;;;5077486;28;20039;-65
2022/09/23 09:30:27;;;;;;;11.38;5.00;;;15.80;99.90;;;;;;5077603;28;20029;-65
2022/09/23 09:33:14;;;;;;;11.32;5.15;;;15.80;99.90;;;;;;5077571;28;20320;-66
2022/09/23 09:36:07;;;;;;;10.35;4.57;;;15.90;99.90;;;;;;5077602;28;20048;-66
2022/09/23 09:38:35;;;;;;;11.50;4.75;;;16.00;99.90;;;;;;5077565;28;20063;-66
2022/09/23 09:41:14;;;;;;;8.85;4.85;;;15.80;99.90;;;;;;5060608;28;20059;-65
2022/09/23 09:43:42;;;;;;;10.65;5.18;;;15.70;99.90;;;;;;5077426;28;20033;-66
2022/09/23 09:46:37;;;;;;;9.20;4.63;;;15.70;99.90;;;;;;5060425;28;20123;-66
2022/09/23 09:49:13;;;;;;;8.10;4.00;;;15.50;99.90;;;;;;5075913;28;20400;-66
2022/09/23 09:51:41;;;;;;;6.38;3.53;;;16.00;99.90;;;;;;5077317;28;20039;-66
2022/09/23 09:54:37;;;;;;;6.53;3.75;;;16.50;99.90;;;;;;5077154;28;20028;-66
2022/09/23 09:57:10;;;;;;;6.57;3.75;;;17.30;99.90;;;;;;5047846;28;20131;-66
2022/09/23 09:59:43;;;;;;;;;;;17.70;99.90;;;;;;5078013;28;20388;-66
2022/09/23 10:02:11;;;;;;;;;;;17.90;99.90;;;;;;5076945;28;19952;-66
2022/09/23 10:04:38;;;;;;;6.28;3.42;;;18.30;99.90;;;;;;5077145;28;20179;-66
2022/09/23 10:07:13;;;;;;;5.72;3.88;;;18.60;99.90;;;;;;5076978;28;20041;-66
2022/09/23 10:09:47;;;;;;;8.82;4.00;;;18.30;99.90;;;;;;5076635;28;20110;-66
2022/09/23 10:12:17;;;;;;;8.77;3.67;;;17.90;99.90;;;;;;5076917;28;20043;-66
2022/09/23 10:14:45;;;;;;;5.28;3.55;;;17.70;99.90;;;;;;5077012;28;20024;-65
2022/09/23 10:17:18;;;;;;;8.40;3.75;;;17.90;99.90;;;;;;5076937;28;20039;-67
2022/09/23 10:19:59;;;;;;;6.13;3.55;;;17.20;99.90;;;;;;5076994;28;20033;-66
2022/09/23 10:22:35;;;;;;;5.05;3.15;;;17.00;99.90;;;;;;5077411;28;20032;-65
2022/09/23 10:25:06;;;;;;;4.30;3.25;;;17.50;99.90;;;;;;5076576;28;20024;-65
2022/09/23 10:27:34;;;;;;;5.13;2.97;;;17.90;99.90;;;;;;5076181;28;20101;-65
2022/09/23 10:30:22;;;;;;;7.40;3.88;;;18.40;99.90;;;;;;5076160;28;20070;-65
2022/09/23 10:32:49;;;;;;;6.50;3.00;;;18.40;99.90;;;;;;5077987;28;20379;-65
2022/09/23 10:35:20;;;;;;;7.78;3.40;;;18.80;99.90;;;;;;5076140;28;20086;-67
2022/09/23 10:37:58;;;;;;;7.07;3.53;;;18.70;99.90;;;;;;5076851;28;20079;-66
2022/09/23 10:46:46;;;;;;;9.98;3.22;;;18.90;99.90;;;;;;5076832;28;20234;-65
2022/09/23 10:49:36;;;;;;;9.27;3.30;;;19.90;99.90;;;;;;5075943;28;20028;-66
2022/09/23 10:52:21;;;;;;;11.25;3.75;;;20.30;99.90;;;;;;5076614;28;20018;-66
2022/09/23 10:55:01;;;;;;;11.40;3.42;;;20.70;99.90;;;;;;5076504;28;20111;-66
2022/09/23 10:58:03;;;;;;;5.53;3.45;;;20.10;99.90;;;;;;5076546;28;20060;-66
2022/09/23 11:01:20;;;;;;;6.13;3.17;;;19.30;99.90;;;;;;5076330;28;20044;-67
2022/09/23 11:04:22;;;;;;;7.47;3.40;;;18.50;99.90;;;;;;5054743;28;20051;-67
2022/09/23 11:07:17;;;;;;;8.73;3.70;;;19.00;99.90;;;;;;5080454;28;20291;-67
2022/09/23 11:10:16;;;;;;;7.60;3.10;;;18.60;99.90;;;;;;5080649;28;20040;-66
2022/09/23 11:12:47;;;;;;;6.50;2.90;;;18.80;99.90;;;;;;5079351;28;20033;-67
2022/09/23 11:15:32;;;;;;;5.87;3.00;;;19.10;99.90;;;;;;5079570;28;20314;-66
2022/09/23 11:18:28;;;;;;;7.38;2.95;;;18.80;99.90;;;;;;5079473;28;20352;-68
2022/09/23 11:20:53;;;;;;;7.60;3.30;;;18.70;99.90;;;;;;5080092;28;20024;-67
2022/09/23 11:23:38;;;;;;;5.80;3.40;;;18.50;99.90;;;;;;5079176;28;20093;-66
2022/09/23 11:26:18;;;;;;;4.38;2.92;;;18.50;99.90;;;;;;5080355;28;20460;-66
2022/09/23 11:28:56;;;;;;;6.93;3.00;;;18.80;99.90;;;;;;5080169;28;20119;-66
2022/09/23 11:31:35;;;;;;;5.80;3.30;;;18.80;99.90;;;;;;5079076;28;20024;-66
2022/09/23 11:34:01;;;;;;;6.72;3.22;;;18.70;99.90;;;;;;5079869;28;20392;-65
2022/09/23 11:36:35;;;;;;;8.55;3.40;;;19.00;99.90;;;;;;5079816;28;20078;-65
2022/09/23 11:39:35;;;;;;;7.60;3.35;;;19.00;99.90;;;;;;5078991;28;20115;-67
2022/09/23 11:42:08;;;;;;;6.72;3.20;;;18.80;99.90;;;;;;5070756;28;20050;-67
2022/09/23 11:44:45;;;;;;;5.57;2.72;;;18.30;99.90;;;;;;5079773;28;20043;-66
2022/09/23 11:47:30;;;;;;;5.63;3.13;;;18.50;99.90;;;;;;5078984;28;20345;-66
2022/09/23 11:50:18;;;;;;;8.07;2.80;;;18.60;99.90;;;;;;5078975;28;20025;-66
2022/09/23 11:52:50;;;;;;;12.63;2.90;;;18.50;99.90;;;;;;5079734;28;20076;-67
2022/09/23 11:55:26;;;;;;;5.90;2.95;;;18.80;99.90;;;;;;5079326;28;20056;-67
2022/09/23 11:58:09;;;;;;;5.05;2.63;;;19.30;99.90;;;;;;5079179;28;20032;-67
2022/09/23 12:00:43;;;;;;;6.13;3.30;;;18.90;99.90;;;;;;5079371;28;20047;-66
2022/09/23 12:03:22;;;;;;;4.63;3.00;;;18.80;99.90;;;;;;5079388;28;20033;-67
2022/09/23 12:06:00;;;;;;;6.40;2.42;;;18.70;99.90;;;;;;5078500;28;20029;-67
2022/09/23 12:08:28;;;;;;;6.25;2.72;;;18.70;99.90;;;;;;5078482;28;20059;-67
2022/09/23 12:11:13;;;;;;;4.20;2.90;;;18.80;99.90;;;;;;5078984;28;20037;-65
2022/09/23 12:13:47;;;;;;;6.47;2.65;;;19.30;99.90;;;;;;5078124;28;20098;-65
2022/09/23 12:16:44;;;;;;;8.52;3.20;;;20.10;99.90;;;;;;5079057;28;20028;-67
2022/09/23 12:19:35;;;;;;;6.47;2.80;;;20.60;99.90;;;;;;5078333;28;20107;-65
2022/09/23 12:22:24;;;;;;;4.03;3.20;;;21.10;99.90;;;;;;5079226;28;20505;-68
2022/09/23 12:25:09;;;;;;;4.53;2.47;;;21.40;99.90;;;;;;5078926;28;20048;-67
2022/09/23 12:27:54;;;;;;;4.55;2.63;;;21.00;99.90;;;;;;5078864;28;20028;-67
2022/09/23 12:30:27;;;;;;;4.88;3.22;;;20.10;99.90;;;;;;5078741;28;20036;-67
2022/09/23 12:33:23;;;;;;;5.32;2.25;;;20.40;99.90;;;;;;5078041;28;20020;-67
2022/09/23 12:35:54;;;;;;;3.95;2.53;;;20.90;99.90;;;;;;5078674;28;20031;-67
2022/09/23 12:38:31;;;;;;;3.95;2.60;;;20.80;99.90;;;;;;5078912;28;20048;-65
2022/09/23 12:40:59;;;;;;;2.75;2.40;;;20.40;99.90;;;;;;5094999;28;20113;-67
2022/09/23 12:43:30;;;;;;;6.40;2.40;;;20.10;99.90;;;;;;5077724;28;20081;-66
2022/09/23 12:46:26;;;;;;;3.15;2.33;;;19.90;99.90;;;;;;5078447;28;20170;-66
2022/09/23 12:48:56;;;;;;;4.82;2.78;;;20.20;99.90;;;;;;5078834;28;20036;-66
2022/09/23 12:51:22;;;;;;;5.65;2.70;;;19.80;99.90;;;;;;5077730;28;20035;-68
2022/09/23 12:53:54;;;;;;;5.38;2.70;;;19.50;99.90;;;;;;5078271;28;20021;-67
2022/09/23 12:56:30;;;;;;;6.18;2.40;;;19.30;99.90;;;;;;5077543;28;20081;-66
2022/09/23 12:59:20;;;;;;;4.03;2.60;;;19.70;99.90;;;;;;5077375;28;20285;-66
2022/09/23 13:01:46;;;;;;;4.88;2.70;;;20.00;99.90;;;;;;5070919;28;20447;-66
2022/09/23 13:07:28;;;;;;;4.83;2.67;;;20.10;99.90;;;;;;5078075;28;20392;-67
2022/09/23 13:10:06;;;;;;;3.17;2.53;;;19.80;99.90;;;;;;5077194;28;20270;-67
2022/09/23 13:12:37;;;;;;;7.53;2.55;;;19.50;99.90;;;;;;5077763;28;20044;-66
2022/09/23 13:15:13;;;;;;;3.50;2.17;;;19.60;99.90;;;;;;5077972;28;20116;-66
2022/09/23 13:17:39;;;;;;;3.97;2.20;;;20.00;99.90;;;;;;5077863;28;20075;-66
2022/09/23 13:20:33;;;;;;;6.50;2.30;;;20.50;99.90;;;;;;5077179;28;20034;-66
2022/09/23 13:23:04;;;;;;;4.78;2.40;;;20.80;99.90;;;;;;5077805;28;20043;-66
2022/09/23 13:25:37;;;;;;;4.30;2.50;;;20.90;99.90;;;;;;5076863;28;20389;-65
2022/09/23 13:28:22;;;;;;;3.60;2.45;;;20.40;99.90;;;;;;5078077;28;20056;-66